sensor_id;sensor_type;location;lat;lon;timestamp;P1;durP1;ratioP1;P2;durP2;ratioP2
26588;SDS011;14235;48.532;8.722;2022-12-24T00:00:20;2.60;;;1.70;;
26588;SDS011;14235;48.532;8.722;2022-12-24T00:02:48;3.92;;;1.60;;
26588;SDS011;14235;48.532;8.722;2022-12-24T00:05:14;4.53;;;2.00;;
26588;SDS011;14235;48.532;8.722;2022-12-24T00:07:40;2.60;;;1.77;;
26588;SDS011;14235;48.532;8.722;2022-12-24T00:10:05;2.25;;;1.60;;
26588;SDS011;14235;48.532;8.722;2022-12-24T00:12:31;3.47;;;1.70;;
26588;SDS011;14235;48.532;8.722;2022-12-24T00:14:57;4.18;;;1.70;;
26588;SDS011;14235;48.532;8.722;2022-12-24T00:17:23;2.30;;;1.73;;
26588;SDS011;14235;48.532;8.722;2022-12-24T00:19:48;6.82;;;2.03;;
26588;SDS011;14235;48.532;8.722;2022-12-24T00:22:14;4.70;;;1.63;;
26588;SDS011;14235;48.532;8.722;2022-12-24T00:24:39;2.20;;;1.45;;
26588;SDS011;14235;48.532;8.722;2022-12-24T00:27:05;2.72;;;1.40;;
26588;SDS011;14235;48.532;8.722;2022-12-24T00:29:31;6.05;;;1.40;;
26588;SDS011;14235;48.532;8.722;2022-12-24T00:31:57;3.72;;;1.55;;
26588;SDS011;14235;48.532;8.722;2022-12-24T00:34:23;2.60;;;1.48;;
26588;SDS011;14235;48.532;8.722;2022-12-24T00:36:49;3.15;;;1.13;;
26588;SDS011;14235;48.532;8.722;2022-12-24T00:39:15;5.32;;;1.27;;
26588;SDS011;14235;48.532;8.722;2022-12-24T00:41:41;1.98;;;1.20;;
26588;SDS011;14235;48.532;8.722;2022-12-24T00:44:07;4.95;;;1.27;;
26588;SDS011;14235;48.532;8.722;2022-12-24T00:46:34;3.38;;;1.20;;
26588;SDS011;14235;48.532;8.722;2022-12-24T00:49:01;2.83;;;1.33;;
26588;SDS011;14235;48.532;8.722;2022-12-24T00:51:27;5.72;;;1.30;;
26588;SDS011;14235;48.532;8.722;2022-12-24T00:53:53;1.77;;;1.13;;
26588;SDS011;14235;48.532;8.722;2022-12-24T00:56:19;2.00;;;1.50;;
26588;SDS011;14235;48.532;8.722;2022-12-24T00:58:45;1.77;;;0.80;;
26588;SDS011;14235;48.532;8.722;2022-12-24T01:01:11;2.60;;;1.40;;
26588;SDS011;14235;48.532;8.722;2022-12-24T01:03:37;3.67;;;1.27;;
26588;SDS011;14235;48.532;8.722;2022-12-24T01:06:20;3.38;;;1.40;;
26588;SDS011;14235;48.532;8.722;2022-12-24T01:08:49;2.47;;;1.10;;
26588;SDS011;14235;48.532;8.722;2022-12-24T01:11:15;2.35;;;1.20;;
26588;SDS011;14235;48.532;8.722;2022-12-24T01:13:40;3.50;;;1.35;;
26588;SDS011;14235;48.532;8.722;2022-12-24T01:16:19;2.65;;;1.38;;
26588;SDS011;14235;48.532;8.722;2022-12-24T01:18:45;2.20;;;1.30;;
26588;SDS011;14235;48.532;8.722;2022-12-24T01:21:10;2.15;;;1.55;;
26588;SDS011;14235;48.532;8.722;2022-12-24T01:23:36;3.42;;;1.48;;
26588;SDS011;14235;48.532;8.722;2022-12-24T01:26:02;3.22;;;1.30;;
26588;SDS011;14235;48.532;8.722;2022-12-24T01:28:30;3.75;;;1.77;;
26588;SDS011;14235;48.532;8.722;2022-12-24T01:30:56;4.10;;;1.80;;
26588;SDS011;14235;48.532;8.722;2022-12-24T01:33:22;5.57;;;1.73;;
26588;SDS011;14235;48.532;8.722;2022-12-24T01:35:47;6.45;;;1.95;;
26588;SDS011;14235;48.532;8.722;2022-12-24T01:38:13;3.97;;;1.77;;
26588;SDS011;14235;48.532;8.722;2022-12-24T01:40:39;3.80;;;1.60;;
26588;SDS011;14235;48.532;8.722;2022-12-24T01:43:26;5.43;;;1.85;;
26588;SDS011;14235;48.532;8.722;2022-12-24T01:45:54;3.63;;;1.83;;
26588;SDS011;14235;48.532;8.722;2022-12-24T01:51:25;3.65;;;2.03;;
26588;SDS011;14235;48.532;8.722;2022-12-24T01:54:04;4.72;;;2.00;;
26588;SDS011;14235;48.532;8.722;2022-12-24T01:56:49;3.97;;;1.95;;
26588;SDS011;14235;48.532;8.722;2022-12-24T01:59:18;4.07;;;2.20;;
26588;SDS011;14235;48.532;8.722;2022-12-24T02:01:45;6.78;;;2.10;;
26588;SDS011;14235;48.532;8.722;2022-12-24T02:04:16;5.47;;;2.05;;
26588;SDS011;14235;48.532;8.722;2022-12-24T02:06:44;3.95;;;1.95;;
26588;SDS011;14235;48.532;8.722;2022-12-24T02:09:09;2.13;;;1.60;;
26588;SDS011;14235;48.532;8.722;2022-12-24T02:11:35;3.55;;;2.13;;
26588;SDS011;14235;48.532;8.722;2022-12-24T02:14:05;4.70;;;2.13;;
26588;SDS011;14235;48.532;8.722;2022-12-24T02:16:37;3.53;;;2.20;;
26588;SDS011;14235;48.532;8.722;2022-12-24T02:19:25;2.63;;;2.17;;
26588;SDS011;14235;48.532;8.722;2022-12-24T02:22:22;5.30;;;2.30;;
26588;SDS011;14235;48.532;8.722;2022-12-24T02:31:26;5.13;;;2.05;;
26588;SDS011;14235;48.532;8.722;2022-12-24T02:34:11;3.00;;;2.38;;
26588;SDS011;14235;48.532;8.722;2022-12-24T02:37:09;3.40;;;2.38;;
26588;SDS011;14235;48.532;8.722;2022-12-24T02:39:48;6.68;;;2.28;;
26588;SDS011;14235;48.532;8.722;2022-12-24T02:42:22;4.32;;;2.35;;
26588;SDS011;14235;48.532;8.722;2022-12-24T02:45:03;2.92;;;1.98;;
26588;SDS011;14235;48.532;8.722;2022-12-24T02:47:36;9.90;;;4.65;;
26588;SDS011;14235;48.532;8.722;2022-12-24T02:50:03;7.75;;;3.80;;
26588;SDS011;14235;48.532;8.722;2022-12-24T02:52:32;5.70;;;3.50;;
26588;SDS011;14235;48.532;8.722;2022-12-24T02:55:07;4.93;;;2.28;;
26588;SDS011;14235;48.532;8.722;2022-12-24T02:57:49;4.38;;;2.35;;
26588;SDS011;14235;48.532;8.722;2022-12-24T03:00:47;4.00;;;1.98;;
26588;SDS011;14235;48.532;8.722;2022-12-24T03:11:34;3.15;;;1.92;;
26588;SDS011;14235;48.532;8.722;2022-12-24T03:14:02;5.07;;;2.53;;
26588;SDS011;14235;48.532;8.722;2022-12-24T03:16:28;2.78;;;2.58;;
26588;SDS011;14235;48.532;8.722;2022-12-24T03:18:54;6.78;;;2.85;;
26588;SDS011;14235;48.532;8.722;2022-12-24T03:21:35;4.95;;;2.30;;
26588;SDS011;14235;48.532;8.722;2022-12-24T03:24:04;4.88;;;2.20;;
26588;SDS011;14235;48.532;8.722;2022-12-24T03:26:30;4.07;;;1.98;;
26588;SDS011;14235;48.532;8.722;2022-12-24T03:28:56;6.22;;;2.40;;
26588;SDS011;14235;48.532;8.722;2022-12-24T03:31:22;5.53;;;2.35;;
26588;SDS011;14235;48.532;8.722;2022-12-24T03:33:48;4.63;;;2.13;;
26588;SDS011;14235;48.532;8.722;2022-12-24T03:36:14;3.40;;;1.75;;
26588;SDS011;14235;48.532;8.722;2022-12-24T03:38:40;3.47;;;2.10;;
26588;SDS011;14235;48.532;8.722;2022-12-24T03:41:05;5.53;;;2.20;;
26588;SDS011;14235;48.532;8.722;2022-12-24T03:43:31;3.40;;;1.65;;
26588;SDS011;14235;48.532;8.722;2022-12-24T03:45:57;3.78;;;2.03;;
26588;SDS011;14235;48.532;8.722;2022-12-24T03:48:27;4.50;;;1.92;;
26588;SDS011;14235;48.532;8.722;2022-12-24T03:50:52;4.95;;;2.38;;
26588;SDS011;14235;48.532;8.722;2022-12-24T03:53:18;2.80;;;2.10;;
26588;SDS011;14235;48.532;8.722;2022-12-24T03:55:43;4.28;;;2.05;;
26588;SDS011;14235;48.532;8.722;2022-12-24T03:58:09;2.88;;;1.88;;
26588;SDS011;14235;48.532;8.722;2022-12-24T04:00:34;3.08;;;2.45;;
26588;SDS011;14235;48.532;8.722;2022-12-24T04:03:00;2.45;;;1.80;;
26588;SDS011;14235;48.532;8.722;2022-12-24T04:05:25;3.38;;;1.90;;
26588;SDS011;14235;48.532;8.722;2022-12-24T04:07:51;5.20;;;2.17;;
26588;SDS011;14235;48.532;8.722;2022-12-24T04:10:16;3.47;;;1.88;;
26588;SDS011;14235;48.532;8.722;2022-12-24T04:12:43;4.53;;;2.35;;
26588;SDS011;14235;48.532;8.722;2022-12-24T04:15:09;3.67;;;2.30;;
26588;SDS011;14235;48.532;8.722;2022-12-24T04:17:35;3.22;;;1.88;;
26588;SDS011;14235;48.532;8.722;2022-12-24T04:20:00;3.35;;;1.90;;
26588;SDS011;14235;48.532;8.722;2022-12-24T04:22:26;3.25;;;2.00;;
26588;SDS011;14235;48.532;8.722;2022-12-24T04:24:51;4.20;;;1.95;;
26588;SDS011;14235;48.532;8.722;2022-12-24T04:27:17;5.22;;;1.60;;
26588;SDS011;14235;48.532;8.722;2022-12-24T04:29:43;4.35;;;1.88;;
26588;SDS011;14235;48.532;8.722;2022-12-24T04:32:08;5.43;;;1.83;;
26588;SDS011;14235;48.532;8.722;2022-12-24T04:34:35;4.40;;;2.15;;
26588;SDS011;14235;48.532;8.722;2022-12-24T04:37:01;4.43;;;1.80;;
26588;SDS011;14235;48.532;8.722;2022-12-24T04:39:26;3.40;;;2.03;;
26588;SDS011;14235;48.532;8.722;2022-12-24T04:41:52;6.60;;;1.98;;
26588;SDS011;14235;48.532;8.722;2022-12-24T04:44:17;4.75;;;1.88;;
26588;SDS011;14235;48.532;8.722;2022-12-24T04:46:43;4.45;;;1.85;;
26588;SDS011;14235;48.532;8.722;2022-12-24T04:49:09;5.10;;;2.20;;
26588;SDS011;14235;48.532;8.722;2022-12-24T04:51:35;3.42;;;1.83;;
26588;SDS011;14235;48.532;8.722;2022-12-24T04:54:00;5.15;;;1.67;;
26588;SDS011;14235;48.532;8.722;2022-12-24T04:56:28;2.50;;;1.80;;
26588;SDS011;14235;48.532;8.722;2022-12-24T04:58:55;3.33;;;1.95;;
26588;SDS011;14235;48.532;8.722;2022-12-24T05:01:22;3.40;;;2.10;;
26588;SDS011;14235;48.532;8.722;2022-12-24T05:03:49;4.05;;;1.75;;
26588;SDS011;14235;48.532;8.722;2022-12-24T05:06:18;3.60;;;1.75;;
26588;SDS011;14235;48.532;8.722;2022-12-24T05:08:45;3.55;;;1.75;;
26588;SDS011;14235;48.532;8.722;2022-12-24T05:11:11;3.25;;;1.77;;
26588;SDS011;14235;48.532;8.722;2022-12-24T05:13:39;6.50;;;2.85;;
26588;SDS011;14235;48.532;8.722;2022-12-24T05:16:05;3.90;;;3.35;;
26588;SDS011;14235;48.532;8.722;2022-12-24T05:18:31;4.90;;;2.60;;
26588;SDS011;14235;48.532;8.722;2022-12-24T05:20:57;3.95;;;2.22;;
26588;SDS011;14235;48.532;8.722;2022-12-24T05:23:23;3.65;;;1.90;;
26588;SDS011;14235;48.532;8.722;2022-12-24T05:26:13;4.10;;;2.78;;
26588;SDS011;14235;48.532;8.722;2022-12-24T05:28:47;3.92;;;2.20;;
26588;SDS011;14235;48.532;8.722;2022-12-24T05:31:17;2.97;;;2.13;;
26588;SDS011;14235;48.532;8.722;2022-12-24T05:33:44;5.93;;;2.20;;
26588;SDS011;14235;48.532;8.722;2022-12-24T05:36:09;5.25;;;2.90;;
26588;SDS011;14235;48.532;8.722;2022-12-24T05:38:35;2.40;;;1.85;;
26588;SDS011;14235;48.532;8.722;2022-12-24T05:41:01;5.07;;;1.75;;
26588;SDS011;14235;48.532;8.722;2022-12-24T05:43:27;7.40;;;2.20;;
26588;SDS011;14235;48.532;8.722;2022-12-24T05:45:59;5.53;;;1.92;;
26588;SDS011;14235;48.532;8.722;2022-12-24T05:48:26;4.07;;;1.67;;
26588;SDS011;14235;48.532;8.722;2022-12-24T05:50:51;2.40;;;1.92;;
26588;SDS011;14235;48.532;8.722;2022-12-24T05:53:17;3.67;;;1.60;;
26588;SDS011;14235;48.532;8.722;2022-12-24T05:55:43;3.92;;;1.98;;
26588;SDS011;14235;48.532;8.722;2022-12-24T05:58:09;5.65;;;2.28;;
26588;SDS011;14235;48.532;8.722;2022-12-24T06:00:34;4.78;;;2.10;;
26588;SDS011;14235;48.532;8.722;2022-12-24T06:03:00;4.13;;;1.73;;
26588;SDS011;14235;48.532;8.722;2022-12-24T06:05:25;3.70;;;2.22;;
26588;SDS011;14235;48.532;8.722;2022-12-24T06:07:51;6.90;;;2.55;;
26588;SDS011;14235;48.532;8.722;2022-12-24T06:10:17;1.85;;;1.52;;
26588;SDS011;14235;48.532;8.722;2022-12-24T06:12:43;5.20;;;3.03;;
26588;SDS011;14235;48.532;8.722;2022-12-24T06:15:09;3.30;;;2.28;;
26588;SDS011;14235;48.532;8.722;2022-12-24T06:17:35;4.63;;;2.05;;
26588;SDS011;14235;48.532;8.722;2022-12-24T06:20:00;4.45;;;2.40;;
26588;SDS011;14235;48.532;8.722;2022-12-24T06:22:26;5.60;;;2.67;;
26588;SDS011;14235;48.532;8.722;2022-12-24T06:24:52;6.97;;;4.55;;
26588;SDS011;14235;48.532;8.722;2022-12-24T06:27:17;12.25;;;8.48;;
26588;SDS011;14235;48.532;8.722;2022-12-24T06:29:43;8.73;;;6.32;;
26588;SDS011;14235;48.532;8.722;2022-12-24T06:32:08;10.07;;;6.85;;
26588;SDS011;14235;48.532;8.722;2022-12-24T06:34:34;12.98;;;8.35;;
26588;SDS011;14235;48.532;8.722;2022-12-24T06:37:00;12.20;;;7.60;;
26588;SDS011;14235;48.532;8.722;2022-12-24T06:39:25;14.63;;;4.90;;
26588;SDS011;14235;48.532;8.722;2022-12-24T06:41:51;5.57;;;3.22;;
26588;SDS011;14235;48.532;8.722;2022-12-24T06:44:16;6.97;;;4.35;;
26588;SDS011;14235;48.532;8.722;2022-12-24T06:46:42;7.15;;;4.15;;
26588;SDS011;14235;48.532;8.722;2022-12-24T06:49:08;11.10;;;7.20;;
26588;SDS011;14235;48.532;8.722;2022-12-24T06:51:33;9.32;;;5.97;;
26588;SDS011;14235;48.532;8.722;2022-12-24T06:53:59;9.90;;;6.72;;
26588;SDS011;14235;48.532;8.722;2022-12-24T06:56:24;8.43;;;6.85;;
26588;SDS011;14235;48.532;8.722;2022-12-24T06:58:50;7.60;;;5.57;;
26588;SDS011;14235;48.532;8.722;2022-12-24T07:01:17;10.57;;;4.55;;
26588;SDS011;14235;48.532;8.722;2022-12-24T07:03:44;5.15;;;3.75;;
26588;SDS011;14235;48.532;8.722;2022-12-24T07:06:14;6.55;;;3.97;;
26588;SDS011;14235;48.532;8.722;2022-12-24T07:08:43;4.88;;;3.25;;
26588;SDS011;14235;48.532;8.722;2022-12-24T07:11:08;6.65;;;3.55;;
26588;SDS011;14235;48.532;8.722;2022-12-24T07:13:34;3.92;;;3.50;;
26588;SDS011;14235;48.532;8.722;2022-12-24T07:16:00;5.60;;;2.95;;
26588;SDS011;14235;48.532;8.722;2022-12-24T07:18:27;4.35;;;3.00;;
26588;SDS011;14235;48.532;8.722;2022-12-24T07:20:53;6.55;;;2.60;;
26588;SDS011;14235;48.532;8.722;2022-12-24T07:23:19;5.53;;;2.92;;
26588;SDS011;14235;48.532;8.722;2022-12-24T07:25:45;6.65;;;2.40;;
26588;SDS011;14235;48.532;8.722;2022-12-24T07:28:11;4.22;;;2.45;;
26588;SDS011;14235;48.532;8.722;2022-12-24T07:30:36;6.85;;;2.63;;
26588;SDS011;14235;48.532;8.722;2022-12-24T07:33:02;6.22;;;3.65;;
26588;SDS011;14235;48.532;8.722;2022-12-24T07:35:27;5.85;;;3.78;;
26588;SDS011;14235;48.532;8.722;2022-12-24T07:37:53;9.25;;;4.25;;
26588;SDS011;14235;48.532;8.722;2022-12-24T07:40:19;7.30;;;4.50;;
26588;SDS011;14235;48.532;8.722;2022-12-24T07:42:44;3.88;;;2.92;;
26588;SDS011;14235;48.532;8.722;2022-12-24T07:45:10;5.57;;;3.08;;
26588;SDS011;14235;48.532;8.722;2022-12-24T07:47:35;6.38;;;3.05;;
26588;SDS011;14235;48.532;8.722;2022-12-24T07:50:02;7.68;;;4.30;;
26588;SDS011;14235;48.532;8.722;2022-12-24T07:52:29;11.15;;;4.80;;
26588;SDS011;14235;48.532;8.722;2022-12-24T07:54:54;7.78;;;4.82;;
26588;SDS011;14235;48.532;8.722;2022-12-24T07:57:20;7.43;;;4.63;;
26588;SDS011;14235;48.532;8.722;2022-12-24T07:59:45;7.97;;;4.00;;
26588;SDS011;14235;48.532;8.722;2022-12-24T08:02:11;7.07;;;4.55;;
26588;SDS011;14235;48.532;8.722;2022-12-24T08:04:37;6.38;;;4.68;;
26588;SDS011;14235;48.532;8.722;2022-12-24T08:07:03;8.82;;;4.85;;
26588;SDS011;14235;48.532;8.722;2022-12-24T08:09:32;7.90;;;4.70;;
26588;SDS011;14235;48.532;8.722;2022-12-24T08:11:59;6.28;;;3.70;;
26588;SDS011;14235;48.532;8.722;2022-12-24T08:14:27;9.38;;;3.85;;
26588;SDS011;14235;48.532;8.722;2022-12-24T08:16:53;8.15;;;3.53;;
26588;SDS011;14235;48.532;8.722;2022-12-24T08:19:19;6.95;;;4.10;;
26588;SDS011;14235;48.532;8.722;2022-12-24T08:21:44;8.82;;;4.05;;
26588;SDS011;14235;48.532;8.722;2022-12-24T08:24:10;7.43;;;3.90;;
26588;SDS011;14235;48.532;8.722;2022-12-24T08:26:35;6.32;;;3.15;;
26588;SDS011;14235;48.532;8.722;2022-12-24T08:29:02;5.90;;;3.55;;
26588;SDS011;14235;48.532;8.722;2022-12-24T08:31:28;4.32;;;3.40;;
26588;SDS011;14235;48.532;8.722;2022-12-24T08:33:54;6.47;;;3.33;;
26588;SDS011;14235;48.532;8.722;2022-12-24T08:36:20;5.57;;;2.55;;
26588;SDS011;14235;48.532;8.722;2022-12-24T08:38:45;5.82;;;3.15;;
26588;SDS011;14235;48.532;8.722;2022-12-24T08:41:11;7.75;;;2.90;;
26588;SDS011;14235;48.532;8.722;2022-12-24T08:43:36;4.50;;;2.50;;
26588;SDS011;14235;48.532;8.722;2022-12-24T08:46:03;5.90;;;3.08;;
26588;SDS011;14235;48.532;8.722;2022-12-24T08:48:30;6.32;;;2.72;;
26588;SDS011;14235;48.532;8.722;2022-12-24T08:50:56;4.97;;;2.35;;
26588;SDS011;14235;48.532;8.722;2022-12-24T08:53:22;4.25;;;3.08;;
26588;SDS011;14235;48.532;8.722;2022-12-24T08:55:48;9.13;;;2.90;;
26588;SDS011;14235;48.532;8.722;2022-12-24T08:58:14;8.13;;;3.10;;
26588;SDS011;14235;48.532;8.722;2022-12-24T09:00:39;7.38;;;2.90;;
26588;SDS011;14235;48.532;8.722;2022-12-24T09:03:05;6.95;;;2.83;;
26588;SDS011;14235;48.532;8.722;2022-12-24T09:05:30;5.50;;;2.97;;
26588;SDS011;14235;48.532;8.722;2022-12-24T09:07:56;6.10;;;2.97;;
26588;SDS011;14235;48.532;8.722;2022-12-24T09:10:22;10.07;;;3.45;;
26588;SDS011;14235;48.532;8.722;2022-12-24T09:12:48;5.28;;;2.58;;
26588;SDS011;14235;48.532;8.722;2022-12-24T09:15:15;5.85;;;3.17;;
26588;SDS011;14235;48.532;8.722;2022-12-24T09:17:40;9.75;;;3.30;;
26588;SDS011;14235;48.532;8.722;2022-12-24T09:20:06;6.15;;;3.30;;
26588;SDS011;14235;48.532;8.722;2022-12-24T09:22:36;11.93;;;4.25;;
26588;SDS011;14235;48.532;8.722;2022-12-24T09:25:03;7.68;;;4.55;;
26588;SDS011;14235;48.532;8.722;2022-12-24T09:27:34;8.13;;;3.78;;
26588;SDS011;14235;48.532;8.722;2022-12-24T09:30:00;7.55;;;4.00;;
26588;SDS011;14235;48.532;8.722;2022-12-24T09:32:25;4.03;;;3.08;;
26588;SDS011;14235;48.532;8.722;2022-12-24T09:34:51;6.68;;;3.50;;
26588;SDS011;14235;48.532;8.722;2022-12-24T09:37:17;8.23;;;4.93;;
26588;SDS011;14235;48.532;8.722;2022-12-24T09:39:43;9.65;;;5.40;;
26588;SDS011;14235;48.532;8.722;2022-12-24T09:47:30;9.63;;;3.83;;
26588;SDS011;14235;48.532;8.722;2022-12-24T09:52:59;6.60;;;2.90;;
26588;SDS011;14235;48.532;8.722;2022-12-24T09:55:32;8.30;;;2.90;;
26588;SDS011;14235;48.532;8.722;2022-12-24T09:58:06;5.82;;;3.17;;
26588;SDS011;14235;48.532;8.722;2022-12-24T10:00:57;10.90;;;4.05;;
26588;SDS011;14235;48.532;8.722;2022-12-24T10:03:23;7.75;;;3.78;;
26588;SDS011;14235;48.532;8.722;2022-12-24T10:09:00;8.18;;;4.35;;
26588;SDS011;14235;48.532;8.722;2022-12-24T10:11:35;8.65;;;3.90;;
26588;SDS011;14235;48.532;8.722;2022-12-24T10:22:24;10.48;;;3.38;;
26588;SDS011;14235;48.532;8.722;2022-12-24T10:25:02;8.77;;;2.92;;
26588;SDS011;14235;48.532;8.722;2022-12-24T10:27:41;10.70;;;3.30;;
26588;SDS011;14235;48.532;8.722;2022-12-24T10:30:14;8.13;;;2.78;;
26588;SDS011;14235;48.532;8.722;2022-12-24T10:32:43;13.55;;;3.67;;
26588;SDS011;14235;48.532;8.722;2022-12-24T10:37:40;9.90;;;3.13;;
26588;SDS011;14235;48.532;8.722;2022-12-24T10:40:11;7.15;;;3.47;;
26588;SDS011;14235;48.532;8.722;2022-12-24T10:42:47;8.43;;;3.65;;
26588;SDS011;14235;48.532;8.722;2022-12-24T10:45:14;10.88;;;4.88;;
26588;SDS011;14235;48.532;8.722;2022-12-24T10:47:44;11.25;;;4.85;;
26588;SDS011;14235;48.532;8.722;2022-12-24T10:50:23;9.18;;;4.00;;
26588;SDS011;14235;48.532;8.722;2022-12-24T10:52:54;12.35;;;4.20;;
26588;SDS011;14235;48.532;8.722;2022-12-24T10:55:28;8.85;;;3.03;;
26588;SDS011;14235;48.532;8.722;2022-12-24T10:57:59;8.35;;;2.97;;
26588;SDS011;14235;48.532;8.722;2022-12-24T11:00:27;12.65;;;3.08;;
26588;SDS011;14235;48.532;8.722;2022-12-24T11:05:44;7.30;;;2.53;;
26588;SDS011;14235;48.532;8.722;2022-12-24T11:10:42;8.13;;;2.92;;
26588;SDS011;14235;48.532;8.722;2022-12-24T11:13:21;5.18;;;2.60;;
26588;SDS011;14235;48.532;8.722;2022-12-24T11:18:48;9.02;;;2.58;;
26588;SDS011;14235;48.532;8.722;2022-12-24T11:21:23;9.05;;;3.00;;
26588;SDS011;14235;48.532;8.722;2022-12-24T11:23:52;9.27;;;3.15;;
26588;SDS011;14235;48.532;8.722;2022-12-24T11:26:25;7.15;;;2.50;;
26588;SDS011;14235;48.532;8.722;2022-12-24T11:31:39;9.73;;;3.08;;
26588;SDS011;14235;48.532;8.722;2022-12-24T11:36:52;6.57;;;2.40;;
26588;SDS011;14235;48.532;8.722;2022-12-24T11:39:22;9.32;;;2.95;;
26588;SDS011;14235;48.532;8.722;2022-12-24T11:41:50;10.25;;;2.83;;
26588;SDS011;14235;48.532;8.722;2022-12-24T11:44:26;6.40;;;2.30;;
26588;SDS011;14235;48.532;8.722;2022-12-24T11:46:53;9.90;;;2.58;;
26588;SDS011;14235;48.532;8.722;2022-12-24T11:54:35;9.75;;;2.85;;
26588;SDS011;14235;48.532;8.722;2022-12-24T12:00:28;11.02;;;2.85;;
26588;SDS011;14235;48.532;8.722;2022-12-24T12:02:54;8.10;;;3.20;;
26588;SDS011;14235;48.532;8.722;2022-12-24T12:05:27;9.95;;;2.90;;
26588;SDS011;14235;48.532;8.722;2022-12-24T12:07:57;6.43;;;2.65;;
26588;SDS011;14235;48.532;8.722;2022-12-24T12:10:35;7.93;;;2.63;;
26588;SDS011;14235;48.532;8.722;2022-12-24T12:13:10;6.63;;;2.65;;
26588;SDS011;14235;48.532;8.722;2022-12-24T12:18:15;6.68;;;2.47;;
26588;SDS011;14235;48.532;8.722;2022-12-24T12:20:47;6.47;;;2.45;;
26588;SDS011;14235;48.532;8.722;2022-12-24T12:23:25;8.18;;;2.70;;
26588;SDS011;14235;48.532;8.722;2022-12-24T12:28:31;8.13;;;2.33;;
26588;SDS011;14235;48.532;8.722;2022-12-24T12:34:12;9.35;;;2.65;;
26588;SDS011;14235;48.532;8.722;2022-12-24T12:36:47;8.50;;;2.80;;
26588;SDS011;14235;48.532;8.722;2022-12-24T12:39:15;8.63;;;2.60;;
26588;SDS011;14235;48.532;8.722;2022-12-24T12:41:48;7.07;;;2.13;;
26588;SDS011;14235;48.532;8.722;2022-12-24T12:49:43;9.27;;;2.97;;
26588;SDS011;14235;48.532;8.722;2022-12-24T12:58:02;5.93;;;2.45;;
26588;SDS011;14235;48.532;8.722;2022-12-24T13:00:34;6.47;;;2.60;;
26588;SDS011;14235;48.532;8.722;2022-12-24T13:03:21;8.45;;;2.58;;
26588;SDS011;14235;48.532;8.722;2022-12-24T13:06:31;6.97;;;2.28;;
26588;SDS011;14235;48.532;8.722;2022-12-24T13:15:37;5.90;;;2.40;;
26588;SDS011;14235;48.532;8.722;2022-12-24T13:20:41;7.30;;;2.63;;
26588;SDS011;14235;48.532;8.722;2022-12-24T13:23:11;5.20;;;2.58;;
26588;SDS011;14235;48.532;8.722;2022-12-24T13:25:57;8.07;;;2.90;;
26588;SDS011;14235;48.532;8.722;2022-12-24T13:30:53;4.50;;;2.38;;
26588;SDS011;14235;48.532;8.722;2022-12-24T13:36:10;6.97;;;2.55;;
26588;SDS011;14235;48.532;8.722;2022-12-24T13:38:42;5.43;;;2.33;;
26588;SDS011;14235;48.532;8.722;2022-12-24T13:44:01;8.13;;;2.97;;
26588;SDS011;14235;48.532;8.722;2022-12-24T13:46:46;8.88;;;2.53;;
26588;SDS011;14235;48.532;8.722;2022-12-24T13:49:31;7.85;;;2.67;;
26588;SDS011;14235;48.532;8.722;2022-12-24T13:54:37;7.60;;;2.72;;
26588;SDS011;14235;48.532;8.722;2022-12-24T14:03:06;6.38;;;2.50;;
26588;SDS011;14235;48.532;8.722;2022-12-24T14:08:08;6.22;;;2.25;;
26588;SDS011;14235;48.532;8.722;2022-12-24T14:16:02;6.68;;;2.00;;
26588;SDS011;14235;48.532;8.722;2022-12-24T14:19:00;4.53;;;2.22;;
26588;SDS011;14235;48.532;8.722;2022-12-24T14:21:36;6.15;;;2.17;;
26588;SDS011;14235;48.532;8.722;2022-12-24T14:24:16;8.10;;;2.80;;
26588;SDS011;14235;48.532;8.722;2022-12-24T14:26:58;7.50;;;2.30;;
26588;SDS011;14235;48.532;8.722;2022-12-24T14:29:31;5.97;;;2.20;;
26588;SDS011;14235;48.532;8.722;2022-12-24T14:32:00;7.85;;;2.63;;
26588;SDS011;14235;48.532;8.722;2022-12-24T14:34:30;8.45;;;2.70;;
26588;SDS011;14235;48.532;8.722;2022-12-24T14:36:56;7.75;;;2.90;;
26588;SDS011;14235;48.532;8.722;2022-12-24T14:39:31;8.05;;;2.83;;
26588;SDS011;14235;48.532;8.722;2022-12-24T14:59:51;6.45;;;2.65;;
26588;SDS011;14235;48.532;8.722;2022-12-24T15:05:10;5.40;;;2.10;;
26588;SDS011;14235;48.532;8.722;2022-12-24T15:08:03;6.05;;;1.95;;
26588;SDS011;14235;48.532;8.722;2022-12-24T15:10:41;8.20;;;2.65;;
26588;SDS011;14235;48.532;8.722;2022-12-24T15:15:46;5.68;;;2.10;;
26588;SDS011;14235;48.532;8.722;2022-12-24T15:18:14;5.05;;;2.70;;
26588;SDS011;14235;48.532;8.722;2022-12-24T15:20:44;5.38;;;2.33;;
26588;SDS011;14235;48.532;8.722;2022-12-24T15:23:17;7.22;;;2.55;;
26588;SDS011;14235;48.532;8.722;2022-12-24T15:25:44;5.00;;;2.15;;
26588;SDS011;14235;48.532;8.722;2022-12-24T15:28:16;3.50;;;2.17;;
26588;SDS011;14235;48.532;8.722;2022-12-24T15:30:43;5.20;;;2.38;;
26588;SDS011;14235;48.532;8.722;2022-12-24T15:33:09;7.97;;;2.28;;
26588;SDS011;14235;48.532;8.722;2022-12-24T15:40:51;6.00;;;3.50;;
26588;SDS011;14235;48.532;8.722;2022-12-24T15:43:18;10.73;;;3.22;;
26588;SDS011;14235;48.532;8.722;2022-12-24T15:45:44;9.02;;;2.83;;
26588;SDS011;14235;48.532;8.722;2022-12-24T15:48:12;6.82;;;2.67;;
26588;SDS011;14235;48.532;8.722;2022-12-24T15:50:45;5.72;;;2.83;;
26588;SDS011;14235;48.532;8.722;2022-12-24T15:53:13;3.53;;;2.00;;
26588;SDS011;14235;48.532;8.722;2022-12-24T15:55:45;5.72;;;2.20;;
26588;SDS011;14235;48.532;8.722;2022-12-24T15:58:24;5.03;;;2.33;;
26588;SDS011;14235;48.532;8.722;2022-12-24T16:00:59;4.18;;;2.17;;
26588;SDS011;14235;48.532;8.722;2022-12-24T16:03:25;5.10;;;2.17;;
26588;SDS011;14235;48.532;8.722;2022-12-24T16:06:00;4.85;;;1.92;;
26588;SDS011;14235;48.532;8.722;2022-12-24T16:08:29;7.90;;;2.70;;
26588;SDS011;14235;48.532;8.722;2022-12-24T16:11:08;5.07;;;3.03;;
26588;SDS011;14235;48.532;8.722;2022-12-24T16:14:22;5.07;;;2.15;;
26588;SDS011;14235;48.532;8.722;2022-12-24T16:16:38;4.78;;;2.28;;
26588;SDS011;14235;48.532;8.722;2022-12-24T16:19:06;4.47;;;2.38;;
26588;SDS011;14235;48.532;8.722;2022-12-24T16:21:49;5.13;;;3.20;;
26588;SDS011;14235;48.532;8.722;2022-12-24T16:26:45;5.80;;;2.65;;
26588;SDS011;14235;48.532;8.722;2022-12-24T16:29:12;7.00;;;2.85;;
26588;SDS011;14235;48.532;8.722;2022-12-24T16:31:59;8.77;;;2.72;;
26588;SDS011;14235;48.532;8.722;2022-12-24T16:34:25;5.03;;;2.60;;
26588;SDS011;14235;48.532;8.722;2022-12-24T16:36:53;5.50;;;2.58;;
26588;SDS011;14235;48.532;8.722;2022-12-24T16:39:23;3.38;;;2.30;;
26588;SDS011;14235;48.532;8.722;2022-12-24T16:41:57;3.70;;;2.50;;
26588;SDS011;14235;48.532;8.722;2022-12-24T16:44:42;4.45;;;2.65;;
26588;SDS011;14235;48.532;8.722;2022-12-24T16:47:09;2.80;;;2.15;;
26588;SDS011;14235;48.532;8.722;2022-12-24T16:49:37;6.53;;;2.55;;
26588;SDS011;14235;48.532;8.722;2022-12-24T16:52:07;7.80;;;3.67;;
26588;SDS011;14235;48.532;8.722;2022-12-24T16:54:50;8.40;;;3.42;;
26588;SDS011;14235;48.532;8.722;2022-12-24T16:57:16;8.43;;;3.13;;
26588;SDS011;14235;48.532;8.722;2022-12-24T16:59:42;5.30;;;4.00;;
26588;SDS011;14235;48.532;8.722;2022-12-24T17:02:19;8.95;;;4.28;;
26588;SDS011;14235;48.532;8.722;2022-12-24T17:04:47;5.20;;;4.28;;
26588;SDS011;14235;48.532;8.722;2022-12-24T17:07:13;6.13;;;4.57;;
26588;SDS011;14235;48.532;8.722;2022-12-24T17:09:41;4.93;;;2.97;;
26588;SDS011;14235;48.532;8.722;2022-12-24T17:12:07;3.80;;;2.30;;
26588;SDS011;14235;48.532;8.722;2022-12-24T17:14:33;4.47;;;2.60;;
26588;SDS011;14235;48.532;8.722;2022-12-24T17:16:59;3.22;;;2.35;;
26588;SDS011;14235;48.532;8.722;2022-12-24T17:19:25;7.10;;;4.28;;
26588;SDS011;14235;48.532;8.722;2022-12-24T17:21:50;4.43;;;2.75;;
26588;SDS011;14235;48.532;8.722;2022-12-24T17:24:16;5.72;;;2.33;;
26588;SDS011;14235;48.532;8.722;2022-12-24T17:26:42;5.95;;;2.75;;